sensor_id;sensor_type;location;lat;lon;timestamp;P1;durP1;ratioP1;P2;durP2;ratioP2
15567;SDS011;7885;42.596;23.044;2023-09-19T00:01:41;9.83;;;8.20;;
15567;SDS011;7885;42.596;23.044;2023-09-19T00:04:11;16.17;;;11.37;;
15567;SDS011;7885;42.596;23.044;2023-09-19T00:06:38;13.73;;;10.23;;
15567;SDS011;7885;42.596;23.044;2023-09-19T00:09:05;14.50;;;10.47;;
15567;SDS011;7885;42.596;23.044;2023-09-19T00:11:35;13.93;;;9.73;;
15567;SDS011;7885;42.596;23.044;2023-09-19T00:14:02;9.47;;;8.50;;
15567;SDS011;7885;42.596;23.044;2023-09-19T00:16:30;11.43;;;8.90;;
15567;SDS011;7885;42.596;23.044;2023-09-19T00:18:57;8.83;;;7.70;;
15567;SDS011;7885;42.596;23.044;2023-09-19T00:21:26;7.87;;;6.60;;
15567;SDS011;7885;42.596;23.044;2023-09-19T00:23:53;7.70;;;7.00;;
15567;SDS011;7885;42.596;23.044;2023-09-19T00:26:20;9.07;;;7.90;;
15567;SDS011;7885;42.596;23.044;2023-09-19T00:28:47;8.57;;;7.77;;
15567;SDS011;7885;42.596;23.044;2023-09-19T00:31:14;8.97;;;6.10;;
15567;SDS011;7885;42.596;23.044;2023-09-19T00:33:40;6.90;;;6.30;;
15567;SDS011;7885;42.596;23.044;2023-09-19T00:36:07;10.43;;;7.67;;
15567;SDS011;7885;42.596;23.044;2023-09-19T00:38:36;6.30;;;5.70;;
15567;SDS011;7885;42.596;23.044;2023-09-19T00:41:02;7.57;;;6.13;;
15567;SDS011;7885;42.596;23.044;2023-09-19T00:43:29;7.10;;;6.40;;
15567;SDS011;7885;42.596;23.044;2023-09-19T00:45:59;7.23;;;6.50;;
15567;SDS011;7885;42.596;23.044;2023-09-19T00:48:28;8.10;;;7.30;;
15567;SDS011;7885;42.596;23.044;2023-09-19T00:50:55;8.20;;;7.40;;
15567;SDS011;7885;42.596;23.044;2023-09-19T00:53:25;8.73;;;7.83;;
15567;SDS011;7885;42.596;23.044;2023-09-19T00:55:53;11.40;;;8.57;;
15567;SDS011;7885;42.596;23.044;2023-09-19T00:58:21;10.17;;;9.03;;
15567;SDS011;7885;42.596;23.044;2023-09-19T01:00:48;9.43;;;8.53;;
15567;SDS011;7885;42.596;23.044;2023-09-19T01:03:16;8.73;;;7.83;;
15567;SDS011;7885;42.596;23.044;2023-09-19T01:05:43;8.37;;;7.53;;
15567;SDS011;7885;42.596;23.044;2023-09-19T01:08:10;8.43;;;6.87;;
15567;SDS011;7885;42.596;23.044;2023-09-19T01:10:37;8.73;;;7.90;;
15567;SDS011;7885;42.596;23.044;2023-09-19T01:13:16;10.30;;;8.60;;
15567;SDS011;7885;42.596;23.044;2023-09-19T01:15:51;7.17;;;6.57;;
15567;SDS011;7885;42.596;23.044;2023-09-19T01:18:27;8.23;;;7.03;;
15567;SDS011;7885;42.596;23.044;2023-09-19T01:21:03;14.43;;;10.53;;
15567;SDS011;7885;42.596;23.044;2023-09-19T01:23:39;7.97;;;7.13;;
15567;SDS011;7885;42.596;23.044;2023-09-19T01:26:28;8.10;;;7.33;;
15567;SDS011;7885;42.596;23.044;2023-09-19T01:29:14;7.23;;;6.63;;
15567;SDS011;7885;42.596;23.044;2023-09-19T01:32:06;7.13;;;6.50;;
15567;SDS011;7885;42.596;23.044;2023-09-19T01:34:44;10.07;;;7.10;;
15567;SDS011;7885;42.596;23.044;2023-09-19T01:37:13;8.57;;;7.10;;
15567;SDS011;7885;42.596;23.044;2023-09-19T01:39:44;8.23;;;6.33;;
15567;SDS011;7885;42.596;23.044;2023-09-19T01:42:17;8.83;;;6.67;;
15567;SDS011;7885;42.596;23.044;2023-09-19T01:44:51;8.20;;;7.40;;
15567;SDS011;7885;42.596;23.044;2023-09-19T01:47:26;9.17;;;7.73;;
15567;SDS011;7885;42.596;23.044;2023-09-19T01:49:59;12.03;;;7.53;;
15567;SDS011;7885;42.596;23.044;2023-09-19T01:52:35;8.50;;;7.33;;
15567;SDS011;7885;42.596;23.044;2023-09-19T01:55:09;8.40;;;6.67;;
15567;SDS011;7885;42.596;23.044;2023-09-19T01:57:42;7.50;;;6.70;;
15567;SDS011;7885;42.596;23.044;2023-09-19T02:00:18;7.40;;;6.70;;
15567;SDS011;7885;42.596;23.044;2023-09-19T02:02:50;8.43;;;6.53;;
15567;SDS011;7885;42.596;23.044;2023-09-19T02:05:24;7.93;;;6.90;;
15567;SDS011;7885;42.596;23.044;2023-09-19T02:07:52;7.90;;;7.10;;
15567;SDS011;7885;42.596;23.044;2023-09-19T02:10:20;7.70;;;6.90;;
15567;SDS011;7885;42.596;23.044;2023-09-19T02:12:47;10.70;;;6.07;;
15567;SDS011;7885;42.596;23.044;2023-09-19T02:15:14;8.77;;;6.40;;
15567;SDS011;7885;42.596;23.044;2023-09-19T02:17:42;7.63;;;6.97;;
15567;SDS011;7885;42.596;23.044;2023-09-19T02:20:11;16.67;;;10.20;;
15567;SDS011;7885;42.596;23.044;2023-09-19T02:22:40;11.97;;;9.40;;
15567;SDS011;7885;42.596;23.044;2023-09-19T02:25:07;16.40;;;8.37;;
15567;SDS011;7885;42.596;23.044;2023-09-19T02:27:34;8.67;;;7.67;;
15567;SDS011;7885;42.596;23.044;2023-09-19T02:30:01;7.63;;;6.87;;
15567;SDS011;7885;42.596;23.044;2023-09-19T02:32:28;8.13;;;6.27;;
15567;SDS011;7885;42.596;23.044;2023-09-19T02:34:56;11.33;;;6.80;;
15567;SDS011;7885;42.596;23.044;2023-09-19T02:37:25;10.00;;;6.37;;
15567;SDS011;7885;42.596;23.044;2023-09-19T02:39:52;9.67;;;7.57;;
15567;SDS011;7885;42.596;23.044;2023-09-19T02:42:19;9.67;;;7.60;;
15567;SDS011;7885;42.596;23.044;2023-09-19T02:44:46;11.90;;;8.20;;
15567;SDS011;7885;42.596;23.044;2023-09-19T02:47:13;10.03;;;7.10;;
15567;SDS011;7885;42.596;23.044;2023-09-19T02:49:41;11.53;;;7.33;;
15567;SDS011;7885;42.596;23.044;2023-09-19T02:52:09;10.47;;;7.37;;
15567;SDS011;7885;42.596;23.044;2023-09-19T02:54:37;10.73;;;8.03;;
15567;SDS011;7885;42.596;23.044;2023-09-19T02:57:04;12.40;;;9.93;;
15567;SDS011;7885;42.596;23.044;2023-09-19T02:59:32;14.17;;;10.83;;
15567;SDS011;7885;42.596;23.044;2023-09-19T03:02:01;11.03;;;9.23;;
15567;SDS011;7885;42.596;23.044;2023-09-19T03:04:29;14.57;;;10.13;;
15567;SDS011;7885;42.596;23.044;2023-09-19T03:06:58;15.30;;;10.80;;
15567;SDS011;7885;42.596;23.044;2023-09-19T03:09:26;13.47;;;9.13;;
15567;SDS011;7885;42.596;23.044;2023-09-19T03:11:54;15.20;;;9.17;;
15567;SDS011;7885;42.596;23.044;2023-09-19T03:14:21;12.00;;;9.37;;
15567;SDS011;7885;42.596;23.044;2023-09-19T03:16:48;13.20;;;8.43;;
15567;SDS011;7885;42.596;23.044;2023-09-19T03:19:17;12.47;;;8.87;;
15567;SDS011;7885;42.596;23.044;2023-09-19T03:21:46;12.83;;;9.00;;
15567;SDS011;7885;42.596;23.044;2023-09-19T03:24:15;11.77;;;9.37;;
15567;SDS011;7885;42.596;23.044;2023-09-19T03:26:42;11.03;;;9.47;;
15567;SDS011;7885;42.596;23.044;2023-09-19T03:29:12;15.73;;;10.30;;
15567;SDS011;7885;42.596;23.044;2023-09-19T03:31:39;14.50;;;10.63;;
15567;SDS011;7885;42.596;23.044;2023-09-19T03:34:05;18.20;;;9.97;;
15567;SDS011;7885;42.596;23.044;2023-09-19T03:36:33;18.97;;;10.03;;
15567;SDS011;7885;42.596;23.044;2023-09-19T03:39:00;18.13;;;10.50;;
15567;SDS011;7885;42.596;23.044;2023-09-19T03:41:30;17.23;;;11.57;;
15567;SDS011;7885;42.596;23.044;2023-09-19T03:43:56;17.40;;;10.87;;
15567;SDS011;7885;42.596;23.044;2023-09-19T03:46:25;9.97;;;8.63;;
15567;SDS011;7885;42.596;23.044;2023-09-19T03:48:51;10.90;;;8.40;;
15567;SDS011;7885;42.596;23.044;2023-09-19T03:51:19;13.40;;;10.13;;
15567;SDS011;7885;42.596;23.044;2023-09-19T03:53:46;10.70;;;9.37;;
15567;SDS011;7885;42.596;23.044;2023-09-19T03:56:14;11.07;;;8.63;;
15567;SDS011;7885;42.596;23.044;2023-09-19T03:58:41;11.97;;;10.03;;
15567;SDS011;7885;42.596;23.044;2023-09-19T04:01:07;16.30;;;10.37;;
15567;SDS011;7885;42.596;23.044;2023-09-19T04:03:35;15.47;;;9.03;;
15567;SDS011;7885;42.596;23.044;2023-09-19T04:06:11;14.87;;;9.20;;
15567;SDS011;7885;42.596;23.044;2023-09-19T04:08:38;10.70;;;8.13;;
15567;SDS011;7885;42.596;23.044;2023-09-19T04:11:05;11.80;;;8.57;;
15567;SDS011;7885;42.596;23.044;2023-09-19T04:13:32;16.23;;;9.70;;
15567;SDS011;7885;42.596;23.044;2023-09-19T04:15:58;10.53;;;9.23;;
15567;SDS011;7885;42.596;23.044;2023-09-19T04:18:25;13.73;;;10.23;;
15567;SDS011;7885;42.596;23.044;2023-09-19T04:20:53;15.57;;;9.33;;
15567;SDS011;7885;42.596;23.044;2023-09-19T04:23:21;10.83;;;9.60;;
15567;SDS011;7885;42.596;23.044;2023-09-19T04:25:48;17.40;;;9.77;;
15567;SDS011;7885;42.596;23.044;2023-09-19T04:28:15;22.87;;;9.90;;
15567;SDS011;7885;42.596;23.044;2023-09-19T04:30:42;12.67;;;9.73;;
15567;SDS011;7885;42.596;23.044;2023-09-19T04:33:09;13.83;;;10.00;;
15567;SDS011;7885;42.596;23.044;2023-09-19T04:35:36;16.07;;;9.87;;
15567;SDS011;7885;42.596;23.044;2023-09-19T04:38:05;14.83;;;9.07;;
15567;SDS011;7885;42.596;23.044;2023-09-19T04:40:32;20.67;;;10.43;;
15567;SDS011;7885;42.596;23.044;2023-09-19T04:42:59;14.87;;;9.63;;
15567;SDS011;7885;42.596;23.044;2023-09-19T04:45:26;17.33;;;10.10;;
15567;SDS011;7885;42.596;23.044;2023-09-19T04:47:54;14.87;;;9.83;;
15567;SDS011;7885;42.596;23.044;2023-09-19T04:50:21;22.77;;;10.77;;
15567;SDS011;7885;42.596;23.044;2023-09-19T04:52:49;14.20;;;10.90;;
15567;SDS011;7885;42.596;23.044;2023-09-19T04:55:17;33.20;;;12.17;;
15567;SDS011;7885;42.596;23.044;2023-09-19T04:57:45;17.27;;;11.83;;
15567;SDS011;7885;42.596;23.044;2023-09-19T05:00:13;19.63;;;11.73;;
15567;SDS011;7885;42.596;23.044;2023-09-19T05:02:41;17.67;;;12.60;;
15567;SDS011;7885;42.596;23.044;2023-09-19T05:05:09;29.17;;;13.23;;
15567;SDS011;7885;42.596;23.044;2023-09-19T05:07:37;27.67;;;12.33;;
15567;SDS011;7885;42.596;23.044;2023-09-19T05:10:06;22.97;;;12.90;;
15567;SDS011;7885;42.596;23.044;2023-09-19T05:12:34;25.20;;;13.13;;
15567;SDS011;7885;42.596;23.044;2023-09-19T05:15:01;28.23;;;13.20;;
15567;SDS011;7885;42.596;23.044;2023-09-19T05:17:29;32.63;;;13.90;;
15567;SDS011;7885;42.596;23.044;2023-09-19T05:19:56;36.33;;;17.87;;
15567;SDS011;7885;42.596;23.044;2023-09-19T05:22:23;36.33;;;15.60;;
15567;SDS011;7885;42.596;23.044;2023-09-19T05:24:50;26.10;;;14.30;;
15567;SDS011;7885;42.596;23.044;2023-09-19T05:27:18;28.07;;;14.03;;
15567;SDS011;7885;42.596;23.044;2023-09-19T05:29:47;24.47;;;13.50;;
15567;SDS011;7885;42.596;23.044;2023-09-19T05:32:14;29.87;;;14.10;;
15567;SDS011;7885;42.596;23.044;2023-09-19T05:34:41;30.40;;;14.33;;
15567;SDS011;7885;42.596;23.044;2023-09-19T05:37:07;42.87;;;15.70;;
15567;SDS011;7885;42.596;23.044;2023-09-19T05:39:34;39.13;;;17.53;;
15567;SDS011;7885;42.596;23.044;2023-09-19T05:42:02;34.57;;;14.73;;
15567;SDS011;7885;42.596;23.044;2023-09-19T05:44:29;36.20;;;14.30;;
15567;SDS011;7885;42.596;23.044;2023-09-19T05:46:58;31.43;;;13.93;;
15567;SDS011;7885;42.596;23.044;2023-09-19T05:49:25;32.30;;;13.40;;
15567;SDS011;7885;42.596;23.044;2023-09-19T05:51:52;23.37;;;12.40;;
15567;SDS011;7885;42.596;23.044;2023-09-19T05:54:20;29.57;;;13.13;;
15567;SDS011;7885;42.596;23.044;2023-09-19T05:56:47;27.60;;;12.73;;
15567;SDS011;7885;42.596;23.044;2023-09-19T05:59:17;28.37;;;13.40;;
15567;SDS011;7885;42.596;23.044;2023-09-19T06:01:44;24.00;;;13.10;;
15567;SDS011;7885;42.596;23.044;2023-09-19T06:04:13;33.67;;;12.10;;
15567;SDS011;7885;42.596;23.044;2023-09-19T06:06:41;26.50;;;13.23;;
15567;SDS011;7885;42.596;23.044;2023-09-19T06:09:08;26.37;;;12.73;;
15567;SDS011;7885;42.596;23.044;2023-09-19T06:11:34;27.03;;;12.60;;
15567;SDS011;7885;42.596;23.044;2023-09-19T06:14:01;24.43;;;12.50;;
15567;SDS011;7885;42.596;23.044;2023-09-19T06:16:28;26.70;;;12.77;;
15567;SDS011;7885;42.596;23.044;2023-09-19T06:18:55;25.13;;;13.13;;
15567;SDS011;7885;42.596;23.044;2023-09-19T06:21:23;25.07;;;11.43;;
15567;SDS011;7885;42.596;23.044;2023-09-19T06:23:50;28.50;;;12.67;;
15567;SDS011;7885;42.596;23.044;2023-09-19T06:26:17;26.63;;;12.73;;
15567;SDS011;7885;42.596;23.044;2023-09-19T06:28:44;18.07;;;10.77;;
15567;SDS011;7885;42.596;23.044;2023-09-19T06:31:10;15.20;;;10.33;;
15567;SDS011;7885;42.596;23.044;2023-09-19T06:33:38;17.77;;;9.87;;
15567;SDS011;7885;42.596;23.044;2023-09-19T06:36:05;17.43;;;9.07;;
15567;SDS011;7885;42.596;23.044;2023-09-19T06:38:33;20.13;;;10.27;;
15567;SDS011;7885;42.596;23.044;2023-09-19T06:41:01;18.17;;;10.73;;
15567;SDS011;7885;42.596;23.044;2023-09-19T06:43:30;13.00;;;10.23;;
15567;SDS011;7885;42.596;23.044;2023-09-19T06:45:57;14.00;;;9.90;;
15567;SDS011;7885;42.596;23.044;2023-09-19T06:48:24;14.00;;;9.70;;
15567;SDS011;7885;42.596;23.044;2023-09-19T06:50:52;12.73;;;9.50;;
15567;SDS011;7885;42.596;23.044;2023-09-19T06:53:20;11.83;;;10.03;;
15567;SDS011;7885;42.596;23.044;2023-09-19T06:55:49;16.70;;;9.50;;
15567;SDS011;7885;42.596;23.044;2023-09-19T06:58:16;17.77;;;10.33;;
15567;SDS011;7885;42.596;23.044;2023-09-19T07:00:42;10.03;;;8.60;;
15567;SDS011;7885;42.596;23.044;2023-09-19T07:03:09;14.27;;;9.03;;
15567;SDS011;7885;42.596;23.044;2023-09-19T07:05:37;17.93;;;9.43;;
15567;SDS011;7885;42.596;23.044;2023-09-19T07:08:05;17.10;;;9.87;;
15567;SDS011;7885;42.596;23.044;2023-09-19T07:10:33;9.87;;;8.70;;
15567;SDS011;7885;42.596;23.044;2023-09-19T07:13:01;15.13;;;10.23;;
15567;SDS011;7885;42.596;23.044;2023-09-19T07:15:30;19.27;;;9.63;;
15567;SDS011;7885;42.596;23.044;2023-09-19T07:18:01;18.03;;;9.23;;
15567;SDS011;7885;42.596;23.044;2023-09-19T07:20:28;13.23;;;8.67;;
15567;SDS011;7885;42.596;23.044;2023-09-19T07:22:57;12.33;;;8.47;;
15567;SDS011;7885;42.596;23.044;2023-09-19T07:25:24;13.97;;;9.17;;
15567;SDS011;7885;42.596;23.044;2023-09-19T07:27:51;18.63;;;9.60;;
15567;SDS011;7885;42.596;23.044;2023-09-19T07:30:19;15.67;;;8.00;;
15567;SDS011;7885;42.596;23.044;2023-09-19T07:32:46;14.03;;;9.23;;
15567;SDS011;7885;42.596;23.044;2023-09-19T07:35:13;12.43;;;9.13;;
15567;SDS011;7885;42.596;23.044;2023-09-19T07:37:41;16.73;;;8.87;;
15567;SDS011;7885;42.596;23.044;2023-09-19T07:40:08;17.70;;;9.80;;
15567;SDS011;7885;42.596;23.044;2023-09-19T07:42:36;22.03;;;9.60;;
15567;SDS011;7885;42.596;23.044;2023-09-19T07:45:06;21.07;;;9.50;;
15567;SDS011;7885;42.596;23.044;2023-09-19T07:47:35;17.57;;;9.13;;
15567;SDS011;7885;42.596;23.044;2023-09-19T07:50:02;17.43;;;9.67;;
15567;SDS011;7885;42.596;23.044;2023-09-19T07:52:29;15.23;;;8.43;;
15567;SDS011;7885;42.596;23.044;2023-09-19T07:54:58;11.70;;;8.52;;
15567;SDS011;7885;42.596;23.044;2023-09-19T07:57:26;16.95;;;9.35;;
15567;SDS011;7885;42.596;23.044;2023-09-19T07:59:54;16.55;;;9.13;;
15567;SDS011;7885;42.596;23.044;2023-09-19T08:02:20;11.45;;;7.90;;
15567;SDS011;7885;42.596;23.044;2023-09-19T08:04:49;12.50;;;7.65;;
15567;SDS011;7885;42.596;23.044;2023-09-19T08:07:17;11.90;;;9.02;;
15567;SDS011;7885;42.596;23.044;2023-09-19T08:09:44;11.48;;;8.35;;
15567;SDS011;7885;42.596;23.044;2023-09-19T08:12:13;15.30;;;9.05;;
15567;SDS011;7885;42.596;23.044;2023-09-19T08:14:40;12.75;;;9.13;;
15567;SDS011;7885;42.596;23.044;2023-09-19T08:17:07;13.50;;;9.10;;
15567;SDS011;7885;42.596;23.044;2023-09-19T08:19:34;13.32;;;8.80;;
15567;SDS011;7885;42.596;23.044;2023-09-19T08:22:02;14.05;;;9.13;;
15567;SDS011;7885;42.596;23.044;2023-09-19T08:24:29;16.52;;;9.80;;
15567;SDS011;7885;42.596;23.044;2023-09-19T08:26:58;21.02;;;10.38;;
15567;SDS011;7885;42.596;23.044;2023-09-19T08:29:25;17.23;;;9.43;;
15567;SDS011;7885;42.596;23.044;2023-09-19T08:31:53;14.77;;;9.90;;
15567;SDS011;7885;42.596;23.044;2023-09-19T08:34:20;16.40;;;9.88;;
15567;SDS011;7885;42.596;23.044;2023-09-19T08:36:48;12.90;;;8.90;;
15567;SDS011;7885;42.596;23.044;2023-09-19T08:39:19;18.13;;;9.27;;
15567;SDS011;7885;42.596;23.044;2023-09-19T08:41:45;21.02;;;9.45;;
15567;SDS011;7885;42.596;23.044;2023-09-19T08:44:12;17.88;;;8.55;;
15567;SDS011;7885;42.596;23.044;2023-09-19T08:46:40;17.42;;;9.90;;
15567;SDS011;7885;42.596;23.044;2023-09-19T08:49:08;19.02;;;8.95;;
15567;SDS011;7885;42.596;23.044;2023-09-19T08:51:47;18.15;;;7.93;;
15567;SDS011;7885;42.596;23.044;2023-09-19T08:54:24;14.85;;;8.13;;
15567;SDS011;7885;42.596;23.044;2023-09-19T08:56:52;17.08;;;8.52;;
15567;SDS011;7885;42.596;23.044;2023-09-19T08:59:21;19.55;;;9.23;;
15567;SDS011;7885;42.596;23.044;2023-09-19T09:01:52;17.98;;;8.35;;
15567;SDS011;7885;42.596;23.044;2023-09-19T09:04:19;14.55;;;8.20;;
15567;SDS011;7885;42.596;23.044;2023-09-19T09:06:48;15.73;;;7.80;;
15567;SDS011;7885;42.596;23.044;2023-09-19T09:09:18;13.32;;;8.38;;
15567;SDS011;7885;42.596;23.044;2023-09-19T09:11:47;19.45;;;7.97;;
15567;SDS011;7885;42.596;23.044;2023-09-19T09:14:15;17.42;;;8.20;;
15567;SDS011;7885;42.596;23.044;2023-09-19T09:16:42;17.27;;;7.72;;
15567;SDS011;7885;42.596;23.044;2023-09-19T09:19:10;15.23;;;8.60;;
15567;SDS011;7885;42.596;23.044;2023-09-19T09:21:37;13.57;;;8.20;;
15567;SDS011;7885;42.596;23.044;2023-09-19T09:26:57;16.70;;;8.05;;
15567;SDS011;7885;42.596;23.044;2023-09-19T09:32:18;15.10;;;7.78;;
15567;SDS011;7885;42.596;23.044;2023-09-19T09:34:46;13.77;;;7.97;;
15567;SDS011;7885;42.596;23.044;2023-09-19T09:37:15;11.50;;;8.40;;
15567;SDS011;7885;42.596;23.044;2023-09-19T09:39:48;18.00;;;8.98;;
15567;SDS011;7885;42.596;23.044;2023-09-19T09:47:54;14.68;;;7.90;;
15567;SDS011;7885;42.596;23.044;2023-09-19T09:50:24;12.32;;;7.65;;
15567;SDS011;7885;42.596;23.044;2023-09-19T09:52:54;13.57;;;7.93;;
15567;SDS011;7885;42.596;23.044;2023-09-19T09:55:27;13.55;;;8.13;;
15567;SDS011;7885;42.596;23.044;2023-09-19T09:58:03;16.00;;;8.23;;
15567;SDS011;7885;42.596;23.044;2023-09-19T10:00:51;11.27;;;8.25;;
15567;SDS011;7885;42.596;23.044;2023-09-19T10:03:30;11.35;;;8.75;;
15567;SDS011;7885;42.596;23.044;2023-09-19T10:05:59;14.00;;;8.20;;
15567;SDS011;7885;42.596;23.044;2023-09-19T10:08:27;8.82;;;7.85;;
15567;SDS011;7885;42.596;23.044;2023-09-19T10:10:56;10.27;;;8.13;;
15567;SDS011;7885;42.596;23.044;2023-09-19T10:13:31;13.10;;;8.13;;
15567;SDS011;7885;42.596;23.044;2023-09-19T10:16:06;11.23;;;8.07;;
15567;SDS011;7885;42.596;23.044;2023-09-19T10:18:37;13.30;;;7.82;;
15567;SDS011;7885;42.596;23.044;2023-09-19T10:21:05;14.75;;;8.27;;
15567;SDS011;7885;42.596;23.044;2023-09-19T10:23:36;9.25;;;8.27;;
15567;SDS011;7885;42.596;23.044;2023-09-19T10:26:03;12.20;;;7.88;;
15567;SDS011;7885;42.596;23.044;2023-09-19T10:28:35;11.45;;;7.65;;
15567;SDS011;7885;42.596;23.044;2023-09-19T10:31:03;8.82;;;7.38;;
15567;SDS011;7885;42.596;23.044;2023-09-19T10:33:35;10.73;;;7.75;;
15567;SDS011;7885;42.596;23.044;2023-09-19T10:36:03;10.73;;;7.60;;
15567;SDS011;7885;42.596;23.044;2023-09-19T10:38:31;11.82;;;7.72;;
15567;SDS011;7885;42.596;23.044;2023-09-19T10:41:01;11.82;;;8.20;;
15567;SDS011;7885;42.596;23.044;2023-09-19T10:43:29;12.20;;;8.60;;
15567;SDS011;7885;42.596;23.044;2023-09-19T10:46:00;8.68;;;7.78;;
15567;SDS011;7885;42.596;23.044;2023-09-19T10:48:29;11.60;;;8.13;;
15567;SDS011;7885;42.596;23.044;2023-09-19T10:50:58;10.57;;;7.78;;
15567;SDS011;7885;42.596;23.044;2023-09-19T10:53:39;10.40;;;8.43;;
15567;SDS011;7885;42.596;23.044;2023-09-19T10:56:09;9.45;;;7.55;;
15567;SDS011;7885;42.596;23.044;2023-09-19T10:58:42;10.43;;;6.63;;
15567;SDS011;7885;42.596;23.044;2023-09-19T11:01:11;9.40;;;7.40;;
15567;SDS011;7885;42.596;23.044;2023-09-19T11:03:40;8.10;;;7.35;;
15567;SDS011;7885;42.596;23.044;2023-09-19T11:06:09;7.68;;;7.05;;
15567;SDS011;7885;42.596;23.044;2023-09-19T11:08:57;11.57;;;7.85;;
15567;SDS011;7885;42.596;23.044;2023-09-19T11:11:47;16.75;;;7.53;;
15567;SDS011;7885;42.596;23.044;2023-09-19T11:14:41;15.85;;;8.10;;
15567;SDS011;7885;42.596;23.044;2023-09-19T11:23:17;7.95;;;7.18;;
15567;SDS011;7885;42.596;23.044;2023-09-19T11:25:47;9.82;;;7.47;;
15567;SDS011;7885;42.596;23.044;2023-09-19T11:30:57;12.65;;;7.53;;
15567;SDS011;7885;42.596;23.044;2023-09-19T11:33:26;8.77;;;6.60;;
15567;SDS011;7885;42.596;23.044;2023-09-19T11:35:58;8.75;;;7.38;;
15567;SDS011;7885;42.596;23.044;2023-09-19T11:41:36;11.23;;;7.30;;
15567;SDS011;7885;42.596;23.044;2023-09-19T11:47:04;10.02;;;7.32;;
15567;SDS011;7885;42.596;23.044;2023-09-19T11:49:33;10.27;;;7.28;;
15567;SDS011;7885;42.596;23.044;2023-09-19T11:52:02;14.77;;;8.27;;
15567;SDS011;7885;42.596;23.044;2023-09-19T11:54:32;8.63;;;7.28;;
15567;SDS011;7885;42.596;23.044;2023-09-19T11:56:59;8.70;;;7.20;;
15567;SDS011;7885;42.596;23.044;2023-09-19T11:59:28;10.30;;;7.13;;
15567;SDS011;7885;42.596;23.044;2023-09-19T12:01:56;11.30;;;7.43;;
15567;SDS011;7885;42.596;23.044;2023-09-19T12:04:34;12.63;;;7.47;;
15567;SDS011;7885;42.596;23.044;2023-09-19T12:07:04;7.93;;;7.20;;
15567;SDS011;7885;42.596;23.044;2023-09-19T12:09:32;10.57;;;7.72;;
15567;SDS011;7885;42.596;23.044;2023-09-19T12:11:58;9.98;;;8.38;;
15567;SDS011;7885;42.596;23.044;2023-09-19T12:14:25;8.82;;;7.22;;
15567;SDS011;7885;42.596;23.044;2023-09-19T12:16:53;11.55;;;10.18;;
15567;SDS011;7885;42.596;23.044;2023-09-19T12:19:21;9.77;;;7.97;;
15567;SDS011;7885;42.596;23.044;2023-09-19T12:21:59;11.10;;;7.60;;
15567;SDS011;7885;42.596;23.044;2023-09-19T12:24:30;13.55;;;8.38;;
15567;SDS011;7885;42.596;23.044;2023-09-19T12:27:01;13.25;;;8.20;;
15567;SDS011;7885;42.596;23.044;2023-09-19T12:29:31;11.05;;;8.25;;
15567;SDS011;7885;42.596;23.044;2023-09-19T12:31:59;12.38;;;8.10;;
15567;SDS011;7885;42.596;23.044;2023-09-19T12:34:29;11.23;;;8.07;;
15567;SDS011;7885;42.596;23.044;2023-09-19T12:37:08;10.05;;;8.55;;
15567;SDS011;7885;42.596;23.044;2023-09-19T12:39:42;11.63;;;8.65;;
15567;SDS011;7885;42.596;23.044;2023-09-19T12:42:13;11.38;;;8.57;;
15567;SDS011;7885;42.596;23.044;2023-09-19T12:44:42;10.32;;;7.85;;
15567;SDS011;7885;42.596;23.044;2023-09-19T12:47:11;9.85;;;7.95;;
15567;SDS011;7885;42.596;23.044;2023-09-19T12:52:39;14.38;;;7.47;;
15567;SDS011;7885;42.596;23.044;2023-09-19T12:55:07;10.48;;;7.78;;
15567;SDS011;7885;42.596;23.044;2023-09-19T12:57:36;8.23;;;7.43;;
15567;SDS011;7885;42.596;23.044;2023-09-19T13:00:04;10.13;;;8.38;;
15567;SDS011;7885;42.596;23.044;2023-09-19T13:02:36;11.55;;;7.32;;
15567;SDS011;7885;42.596;23.044;2023-09-19T13:05:03;10.75;;;7.22;;
15567;SDS011;7885;42.596;23.044;2023-09-19T13:07:42;11.73;;;7.47;;
15567;SDS011;7885;42.596;23.044;2023-09-19T13:10:14;8.93;;;7.53;;
15567;SDS011;7885;42.596;23.044;2023-09-19T13:12:42;9.32;;;7.30;;
15567;SDS011;7885;42.596;23.044;2023-09-19T13:15:13;12.02;;;8.02;;
15567;SDS011;7885;42.596;23.044;2023-09-19T13:17:44;11.07;;;7.93;;
15567;SDS011;7885;42.596;23.044;2023-09-19T13:20:20;12.57;;;7.57;;
15567;SDS011;7885;42.596;23.044;2023-09-19T13:22:51;11.23;;;7.63;;
15567;SDS011;7885;42.596;23.044;2023-09-19T13:25:20;9.52;;;7.38;;
15567;SDS011;7885;42.596;23.044;2023-09-19T13:27:48;10.90;;;8.13;;
15567;SDS011;7885;42.596;23.044;2023-09-19T13:30:17;12.32;;;7.45;;
15567;SDS011;7885;42.596;23.044;2023-09-19T13:32:44;10.57;;;7.60;;
15567;SDS011;7885;42.596;23.044;2023-09-19T13:35:12;8.93;;;7.20;;
15567;SDS011;7885;42.596;23.044;2023-09-19T13:37:39;17.08;;;7.47;;
15567;SDS011;7885;42.596;23.044;2023-09-19T13:40:09;10.10;;;7.43;;
15567;SDS011;7885;42.596;23.044;2023-09-19T13:42:37;9.85;;;7.78;;
15567;SDS011;7885;42.596;23.044;2023-09-19T13:45:05;8.80;;;7.88;;
15567;SDS011;7885;42.596;23.044;2023-09-19T13:47:32;10.75;;;7.05;;
15567;SDS011;7885;42.596;23.044;2023-09-19T13:50:02;10.13;;;7.32;;
15567;SDS011;7885;42.596;23.044;2023-09-19T13:52:30;11.95;;;7.85;;
15567;SDS011;7885;42.596;23.044;2023-09-19T13:54:57;11.48;;;7.35;;
15567;SDS011;7885;42.596;23.044;2023-09-19T13:57:26;10.27;;;7.32;;
15567;SDS011;7885;42.596;23.044;2023-09-19T13:59:54;9.70;;;7.72;;
15567;SDS011;7885;42.596;23.044;2023-09-19T14:02:21;8.85;;;6.88;;
15567;SDS011;7885;42.596;23.044;2023-09-19T14:04:48;9.77;;;7.25;;
15567;SDS011;7885;42.596;23.044;2023-09-19T14:07:15;8.93;;;7.47;;
15567;SDS011;7885;42.596;23.044;2023-09-19T14:09:43;11.18;;;7.57;;
15567;SDS011;7885;42.596;23.044;2023-09-19T14:12:10;8.85;;;7.28;;
15567;SDS011;7885;42.596;23.044;2023-09-19T14:14:39;8.55;;;7.70;;
15567;SDS011;7885;42.596;23.044;2023-09-19T14:17:05;8.45;;;7.70;;
15567;SDS011;7885;42.596;23.044;2023-09-19T14:19:33;8.73;;;6.90;;
15567;SDS011;7885;42.596;23.044;2023-09-19T14:22:00;8.25;;;7.45;;
15567;SDS011;7885;42.596;23.044;2023-09-19T14:24:32;8.25;;;7.20;;
15567;SDS011;7885;42.596;23.044;2023-09-19T14:26:59;8.75;;;7.70;;
15567;SDS011;7885;42.596;23.044;2023-09-19T14:29:26;8.35;;;7.35;;
15567;SDS011;7885;42.596;23.044;2023-09-19T14:31:54;8.07;;;7.25;;
15567;SDS011;7885;42.596;23.044;2023-09-19T14:34:22;7.60;;;6.90;;
15567;SDS011;7885;42.596;23.044;2023-09-19T14:36:49;10.38;;;7.40;;
15567;SDS011;7885;42.596;23.044;2023-09-19T14:39:16;8.27;;;7.10;;
15567;SDS011;7885;42.596;23.044;2023-09-19T14:41:44;8.13;;;7.13;;
15567;SDS011;7885;42.596;23.044;2023-09-19T14:44:11;8.13;;;7.10;;
15567;SDS011;7885;42.596;23.044;2023-09-19T14:46:38;9.57;;;7.20;;
15567;SDS011;7885;42.596;23.044;2023-09-19T14:49:06;8.02;;;7.28;;
15567;SDS011;7885;42.596;23.044;2023-09-19T14:51:35;10.55;;;7.43;;
15567;SDS011;7885;42.596;23.044;2023-09-19T14:54:02;8.40;;;7.53;;
15567;SDS011;7885;42.596;23.044;2023-09-19T14:56:29;8.00;;;7.13;;
15567;SDS011;7885;42.596;23.044;2023-09-19T14:58:56;11.27;;;6.95;;
15567;SDS011;7885;42.596;23.044;2023-09-19T15:01:23;8.35;;;6.90;;
15567;SDS011;7885;42.596;23.044;2023-09-19T15:03:50;7.78;;;7.00;;
15567;SDS011;7885;42.596;23.044;2023-09-19T15:06:18;8.88;;;7.43;;
15567;SDS011;7885;42.596;23.044;2023-09-19T15:08:47;9.93;;;7.50;;
15567;SDS011;7885;42.596;23.044;2023-09-19T15:11:15;7.60;;;6.88;;
15567;SDS011;7885;42.596;23.044;2023-09-19T15:13:43;8.50;;;7.10;;
15567;SDS011;7885;42.596;23.044;2023-09-19T15:16:10;9.68;;;8.30;;